Time;durP1;ratioP1;P1;durP2;ratioP2;P2;SDS_P1;SDS_P2;PMS_P1;PMS_P2;Temp;Humidity;BMP_temperature;BMP_pressure;BME280_temperature;BME280_humidity;BME280_pressure;Samples;Min_cycle;Max_cycle;Signal;HPM_P1;HPM_P2
2022/08/04 00:01:28;;;;;;;17.60;14.82;;;;;;;;;;5067812;27;20241;-53
2022/08/04 00:03:57;;;;;;;16.88;13.13;;;;;;;;;;5083914;27;20241;-53
2022/08/04 00:06:30;;;;;;;14.05;12.68;;;;;;;;;;5086528;27;20230;-53
2022/08/04 00:08:57;;;;;;;14.65;12.77;;;;;;;;;;5070789;28;20315;-53
2022/08/04 00:11:29;;;;;;;15.60;11.25;;;;;;;;;;5077080;27;20226;-54
2022/08/04 00:13:58;;;;;;;12.77;11.43;;;;;;;;;;5086262;27;20245;-53
2022/08/04 00:16:28;;;;;;;12.20;10.93;;;;;;;;;;5073230;27;20238;-53
2022/08/04 00:18:57;;;;;;;13.95;11.02;;;;;;;;;;5084575;27;20230;-53
2022/08/04 00:21:25;;;;;;;12.75;10.07;;;;;;;;;;5085344;27;20561;-53
2022/08/04 00:23:52;;;;;;;9.43;8.45;;;;;;;;;;5079590;27;20747;-52
2022/08/04 00:26:19;;;;;;;9.18;8.27;;;;;;;;;;5080528;27;20234;-53
2022/08/04 00:28:45;;;;;;;9.18;8.20;;;;;;;;;;5082597;27;20235;-53
2022/08/04 00:31:11;;;;;;;9.30;8.35;;;;;;;;;;5090721;27;20259;-53
2022/08/04 00:33:39;;;;;;;8.70;7.72;;;;;;;;;;5079320;28;20564;-52
2022/08/04 00:36:06;;;;;;;8.60;7.68;;;;;;;;;;5086244;27;20606;-54
2022/08/04 00:38:33;;;;;;;8.88;8.02;;;;;;;;;;5083412;27;20448;-53
2022/08/04 00:41:04;;;;;;;9.50;8.50;;;;;;;;;;5074563;27;20522;-53
2022/08/04 00:43:31;;;;;;;8.45;7.32;;;;;;;;;;5082745;27;20230;-54
2022/08/04 00:46:16;;;;;;;8.75;7.50;;;;;;;;;;5084348;27;20238;-54
2022/08/04 00:48:56;;;;;;;10.77;8.52;;;;;;;;;;5077287;27;20223;-54
2022/08/04 00:51:26;;;;;;;8.73;7.88;;;;;;;;;;5081132;27;20234;-53
2022/08/04 00:53:58;;;;;;;8.02;7.32;;;;;;;;;;5078269;27;20604;-53
2022/08/04 00:56:38;;;;;;;11.02;9.60;;;;;;;;;;5088365;27;20225;-52
2022/08/04 00:59:10;;;;;;;21.35;16.63;;;;;;;;;;5081648;27;20230;-53
2022/08/04 01:01:44;;;;;;;17.42;15.52;;;;;;;;;;5081144;27;20560;-52
2022/08/04 01:04:15;;;;;;;21.05;17.70;;;;;;;;;;5078956;27;20230;-53
2022/08/04 01:06:44;;;;;;;27.35;21.55;;;;;;;;;;5082323;27;20234;-53
2022/08/04 01:09:22;;;;;;;25.77;20.00;;;;;;;;;;5082439;27;20230;-54
2022/08/04 01:11:56;;;;;;;22.40;18.73;;;;;;;;;;5077628;27;20234;-53
2022/08/04 01:14:32;;;;;;;19.63;17.08;;;;;;;;;;5087908;27;20226;-53
2022/08/04 01:17:07;;;;;;;17.95;16.08;;;;;;;;;;5076801;27;20226;-54
2022/08/04 01:19:51;;;;;;;21.23;18.13;;;;;;;;;;5073661;27;20218;-54
2022/08/04 01:22:23;;;;;;;27.45;23.00;;;;;;;;;;5076814;27;20223;-53
2022/08/04 01:25:01;;;;;;;30.67;27.55;;;;;;;;;;5081841;27;20248;-53
2022/08/04 01:27:35;;;;;;;38.40;29.85;;;;;;;;;;5081639;27;20225;-53
2022/08/04 01:30:02;;;;;;;38.30;33.05;;;;;;;;;;5077301;28;20238;-53
2022/08/04 01:32:34;;;;;;;45.30;38.38;;;;;;;;;;5080395;27;20716;-55
2022/08/04 01:35:02;;;;;;;60.67;51.05;;;;;;;;;;5083002;27;20648;-53
2022/08/04 01:37:34;;;;;;;62.97;55.42;;;;;;;;;;5082315;27;20226;-52
2022/08/04 01:40:02;;;;;;;61.92;52.25;;;;;;;;;;5078319;27;20321;-53
2022/08/04 01:42:30;;;;;;;50.00;44.33;;;;;;;;;;5071958;27;20285;-53
2022/08/04 01:44:58;;;;;;;40.88;35.60;;;;;;;;;;5086954;27;20238;-54
2022/08/04 01:47:28;;;;;;;33.38;29.88;;;;;;;;;;5071162;27;20227;-55
2022/08/04 01:49:59;;;;;;;33.10;28.58;;;;;;;;;;5080295;27;20663;-53
2022/08/04 01:52:27;;;;;;;30.73;26.50;;;;;;;;;;5082135;27;20334;-54
2022/08/04 01:54:54;;;;;;;29.58;23.33;;;;;;;;;;5080527;27;20310;-53
2022/08/04 01:57:23;;;;;;;24.90;21.08;;;;;;;;;;5077142;27;20238;-54
2022/08/04 01:59:51;;;;;;;20.20;18.10;;;;;;;;;;5072293;27;20226;-53
2022/08/04 02:02:17;;;;;;;15.98;13.73;;;;;;;;;;5080703;27;20230;-52
2022/08/04 02:04:45;;;;;;;12.77;10.60;;;;;;;;;;5082790;27;20606;-53
2022/08/04 02:07:20;;;;;;;15.57;9.10;;;;;;;;;;5076106;27;20231;-53
2022/08/04 02:09:49;;;;;;;13.95;9.07;;;;;;;;;;5085270;27;20237;-53
2022/08/04 02:12:19;;;;;;;10.90;8.48;;;;;;;;;;5081312;27;20246;-54
2022/08/04 02:14:50;;;;;;;10.95;9.25;;;;;;;;;;5079085;27;20626;-53
2022/08/04 02:17:22;;;;;;;13.85;9.48;;;;;;;;;;5078713;27;20233;-53
2022/08/04 02:20:05;;;;;;;12.30;8.90;;;;;;;;;;5079362;27;20228;-53
2022/08/04 02:22:33;;;;;;;15.63;10.23;;;;;;;;;;5081724;27;20226;-53
2022/08/04 02:25:08;;;;;;;10.75;9.75;;;;;;;;;;5075431;27;20561;-53
2022/08/04 02:27:56;;;;;;;12.27;9.82;;;;;;;;;;5074640;27;20232;-54
2022/08/04 02:30:26;;;;;;;10.90;9.90;;;;;;;;;;5068970;27;20235;-53
2022/08/04 02:32:53;;;;;;;11.88;10.02;;;;;;;;;;5076238;27;20234;-53
2022/08/04 02:35:25;;;;;;;10.23;9.23;;;;;;;;;;5079963;27;20241;-54
2022/08/04 02:38:00;;;;;;;12.63;9.88;;;;;;;;;;5080497;27;20333;-53
2022/08/04 02:40:29;;;;;;;9.27;8.27;;;;;;;;;;5077259;27;20669;-53
2022/08/04 02:42:57;;;;;;;13.38;9.57;;;;;;;;;;5079948;27;20231;-52
2022/08/04 02:45:25;;;;;;;9.52;8.63;;;;;;;;;;5082089;27;20317;-52
2022/08/04 02:47:53;;;;;;;9.57;8.45;;;;;;;;;;5076653;27;20689;-53
2022/08/04 02:50:20;;;;;;;10.23;9.20;;;;;;;;;;5079195;28;20708;-53
2022/08/04 02:52:48;;;;;;;11.70;9.18;;;;;;;;;;5082720;27;20312;-53
2022/08/04 02:55:16;;;;;;;9.55;8.65;;;;;;;;;;5081489;27;20226;-53
2022/08/04 02:57:45;;;;;;;11.40;8.82;;;;;;;;;;5076177;27;20711;-53
2022/08/04 03:00:12;;;;;;;11.98;8.60;;;;;;;;;;5076230;27;20246;-54
2022/08/04 03:02:44;;;;;;;11.38;8.60;;;;;;;;;;5084564;27;20234;-53
2022/08/04 03:05:13;;;;;;;9.65;7.82;;;;;;;;;;5080689;27;20241;-53
2022/08/04 03:08:08;;;;;;;11.57;8.63;;;;;;;;;;5071064;27;20219;-53
2022/08/04 03:10:51;;;;;;;11.98;7.95;;;;;;;;;;5077325;27;20242;-53
2022/08/04 03:13:36;;;;;;;9.00;8.00;;;;;;;;;;5078249;27;20608;-53
2022/08/04 03:16:24;;;;;;;9.88;8.73;;;;;;;;;;5075108;27;20701;-54
2022/08/04 03:19:15;;;;;;;9.93;8.35;;;;;;;;;;5074164;27;20713;-53
2022/08/04 03:22:08;;;;;;;8.98;7.75;;;;;;;;;;5072238;27;20238;-54
2022/08/04 03:24:57;;;;;;;10.55;7.90;;;;;;;;;;5082777;27;20226;-52
2022/08/04 03:27:32;;;;;;;8.45;7.72;;;;;;;;;;5082285;27;20256;-53
2022/08/04 03:30:03;;;;;;;9.35;8.38;;;;;;;;;;5085382;27;20237;-53
2022/08/04 03:32:49;;;;;;;9.55;7.88;;;;;;;;;;5086050;27;20242;-53
2022/08/04 03:35:30;;;;;;;8.32;7.57;;;;;;;;;;5075985;28;20242;-53
2022/08/04 03:38:07;;;;;;;7.13;6.43;;;;;;;;;;5081129;27;20231;-54
2022/08/04 03:40:40;;;;;;;7.50;5.95;;;;;;;;;;5078758;27;20736;-53
2022/08/04 03:43:25;;;;;;;5.95;5.45;;;;;;;;;;5082510;27;20276;-54
2022/08/04 03:46:05;;;;;;;6.82;5.40;;;;;;;;;;5075556;28;20723;-53
2022/08/04 03:48:39;;;;;;;6.20;5.60;;;;;;;;;;5082570;27;20222;-53
2022/08/04 03:54:18;;;;;;;6.20;5.70;;;;;;;;;;5084204;27;20237;-53
2022/08/04 03:57:02;;;;;;;6.03;5.43;;;;;;;;;;5080834;27;20230;-53
2022/08/04 03:59:43;;;;;;;7.10;5.68;;;;;;;;;;5083652;27;20720;-52
2022/08/04 04:02:22;;;;;;;6.32;5.80;;;;;;;;;;5075458;27;20239;-53
2022/08/04 04:04:55;;;;;;;5.75;5.25;;;;;;;;;;5089870;27;20438;-53
2022/08/04 04:07:36;;;;;;;6.03;5.38;;;;;;;;;;5085615;27;20247;-53
2022/08/04 04:10:20;;;;;;;8.13;5.95;;;;;;;;;;5086660;27;20807;-53
2022/08/04 04:12:59;;;;;;;7.30;5.28;;;;;;;;;;5069972;27;20728;-53
2022/08/04 04:15:35;;;;;;;5.18;4.78;;;;;;;;;;5084258;27;20234;-52
2022/08/04 04:18:15;;;;;;;5.47;5.03;;;;;;;;;;5083715;27;20245;-55
2022/08/04 04:20:55;;;;;;;5.90;5.32;;;;;;;;;;5084415;27;20227;-53
2022/08/04 04:23:28;;;;;;;6.35;5.75;;;;;;;;;;5079468;27;20603;-53
2022/08/04 04:26:00;;;;;;;6.95;6.25;;;;;;;;;;5092596;27;20612;-53
2022/08/04 04:28:32;;;;;;;7.80;5.10;;;;;;;;;;5089510;27;20507;-52
2022/08/04 04:31:07;;;;;;;8.38;6.20;;;;;;;;;;5086840;27;20554;-53
2022/08/04 04:33:43;;;;;;;6.82;5.90;;;;;;;;;;5084192;27;20226;-58
2022/08/04 04:36:11;;;;;;;6.05;5.22;;;;;;;;;;5079473;28;20662;-53
2022/08/04 04:38:53;;;;;;;6.78;6.05;;;;;;;;;;5083608;27;20223;-53
2022/08/04 04:41:26;;;;;;;6.15;5.60;;;;;;;;;;5089763;27;20253;-52
2022/08/04 04:44:18;;;;;;;6.78;6.15;;;;;;;;;;5085721;27;20238;-53
2022/08/04 04:46:50;;;;;;;6.35;5.75;;;;;;;;;;5078243;27;20456;-53
2022/08/04 04:49:22;;;;;;;5.95;5.28;;;;;;;;;;5090888;27;20275;-54
2022/08/04 04:51:50;;;;;;;7.00;5.80;;;;;;;;;;5084207;27;20235;-53
2022/08/04 04:54:21;;;;;;;5.55;5.05;;;;;;;;;;5087115;27;20235;-53
2022/08/04 04:56:51;;;;;;;7.70;6.00;;;;;;;;;;5081918;27;20254;-54
2022/08/04 04:59:20;;;;;;;6.88;5.97;;;;;;;;;;5091770;27;20237;-54
2022/08/04 05:01:59;;;;;;;7.03;5.93;;;;;;;;;;5085129;27;20235;-54
2022/08/04 05:04:36;;;;;;;5.65;5.15;;;;;;;;;;5090504;27;20230;-54
2022/08/04 05:07:14;;;;;;;6.28;5.78;;;;;;;;;;5088606;27;20230;-57
2022/08/04 05:09:48;;;;;;;7.78;6.78;;;;;;;;;;5104985;27;20237;-53
2022/08/04 05:12:22;;;;;;;7.65;5.90;;;;;;;;;;5086877;27;20236;-53
2022/08/04 05:14:49;;;;;;;6.53;6.00;;;;;;;;;;5076663;27;20234;-53
2022/08/04 05:17:20;;;;;;;7.82;6.43;;;;;;;;;;5077917;27;20238;-55
2022/08/04 05:19:58;;;;;;;6.82;6.28;;;;;;;;;;5081808;27;20238;-54
2022/08/04 05:22:28;;;;;;;6.60;6.00;;;;;;;;;;5092813;27;20704;-54
2022/08/04 05:24:57;;;;;;;6.22;5.72;;;;;;;;;;5093108;27;20783;-54
2022/08/04 05:27:28;;;;;;;5.85;5.30;;;;;;;;;;5090019;27;20317;-53
2022/08/04 05:29:57;;;;;;;5.90;5.43;;;;;;;;;;5087881;27;20239;-54
2022/08/04 05:32:28;;;;;;;9.02;6.03;;;;;;;;;;5091601;27;20230;-54
2022/08/04 05:34:57;;;;;;;6.88;5.78;;;;;;;;;;5081273;27;20451;-53
2022/08/04 05:37:24;;;;;;;7.18;5.85;;;;;;;;;;5083421;27;20237;-53
2022/08/04 05:39:53;;;;;;;7.43;5.78;;;;;;;;;;5089074;27;20221;-54
2022/08/04 05:42:20;;;;;;;11.52;6.97;;;;;;;;;;5089336;27;20250;-53
2022/08/04 05:44:47;;;;;;;7.25;5.78;;;;;;;;;;5084056;27;20231;-53
2022/08/04 05:47:14;;;;;;;5.75;5.25;;;;;;;;;;5082727;27;20230;-54
2022/08/04 05:49:42;;;;;;;5.88;5.38;;;;;;;;;;5084219;27;20250;-54
2022/08/04 05:52:09;;;;;;;7.07;5.82;;;;;;;;;;5083647;27;20234;-53
2022/08/04 05:54:37;;;;;;;9.43;6.68;;;;;;;;;;5089795;28;20245;-53
2022/08/04 05:57:04;;;;;;;8.38;6.85;;;;;;;;;;5087218;27;20227;-55
2022/08/04 05:59:32;;;;;;;7.35;6.30;;;;;;;;;;5083857;27;20372;-55
2022/08/04 06:01:59;;;;;;;11.13;6.68;;;;;;;;;;5086575;27;20660;-53
2022/08/04 06:04:27;;;;;;;10.15;6.32;;;;;;;;;;5080634;27;20235;-58
2022/08/04 06:06:55;;;;;;;9.20;6.63;;;;;;;;;;5078949;27;20250;-53
2022/08/04 06:09:22;;;;;;;7.15;6.35;;;;;;;;;;5083313;27;20288;-53
2022/08/04 06:11:49;;;;;;;6.70;6.07;;;;;;;;;;5079542;27;20237;-53
2022/08/04 06:14:16;;;;;;;8.23;6.22;;;;;;;;;;5071272;27;20234;-53
2022/08/04 06:16:44;;;;;;;6.22;5.43;;;;;;;;;;5083440;27;20231;-54
2022/08/04 06:19:12;;;;;;;9.38;6.93;;;;;;;;;;5074536;27;20231;-53
2022/08/04 06:21:40;;;;;;;9.68;6.38;;;;;;;;;;5081706;27;20230;-52
2022/08/04 06:24:10;;;;;;;6.93;6.22;;;;;;;;;;5086049;27;20235;-53
2022/08/04 06:26:36;;;;;;;7.30;6.65;;;;;;;;;;5076386;27;20749;-52
2022/08/04 06:29:04;;;;;;;8.10;6.28;;;;;;;;;;5083478;27;20244;-55
2022/08/04 06:31:42;;;;;;;6.72;5.43;;;;;;;;;;5086862;27;20380;-52
2022/08/04 06:34:08;;;;;;;6.20;5.25;;;;;;;;;;5077666;27;20233;-54
2022/08/04 06:36:36;;;;;;;5.72;4.80;;;;;;;;;;5076297;27;20226;-53
2022/08/04 06:39:03;;;;;;;6.80;5.03;;;;;;;;;;5078704;27;20241;-56
2022/08/04 06:41:31;;;;;;;4.85;4.35;;;;;;;;;;5075125;27;20226;-53
2022/08/04 06:43:59;;;;;;;10.73;9.20;;;;;;;;;;5071445;27;20246;-52
2022/08/04 06:46:26;;;;;;;6.00;5.50;;;;;;;;;;5076170;27;20227;-53
2022/08/04 06:48:56;;;;;;;5.93;5.20;;;;;;;;;;5080895;27;20303;-53
2022/08/04 06:51:23;;;;;;;6.07;4.60;;;;;;;;;;5071846;27;20242;-53
2022/08/04 06:53:49;;;;;;;5.32;4.93;;;;;;;;;;5082425;27;20222;-52
2022/08/04 06:56:16;;;;;;;5.35;4.82;;;;;;;;;;5072526;27;20229;-52
2022/08/04 06:58:44;;;;;;;6.07;5.63;;;;;;;;;;5083091;27;20602;-54
2022/08/04 07:01:12;;;;;;;6.88;5.68;;;;;;;;;;5081199;27;20230;-54
2022/08/04 07:03:39;;;;;;;6.95;5.38;;;;;;;;;;5075634;27;20249;-52
2022/08/04 07:06:06;;;;;;;5.88;5.28;;;;;;;;;;5093683;27;20669;-55
2022/08/04 07:08:34;;;;;;;5.32;4.53;;;;;;;;;;5078296;27;20233;-53
2022/08/04 07:11:01;;;;;;;6.70;6.07;;;;;;;;;;5081189;27;20594;-54
2022/08/04 07:13:27;;;;;;;5.40;4.90;;;;;;;;;;5087102;27;20518;-54
2022/08/04 07:15:55;;;;;;;5.13;4.72;;;;;;;;;;5086563;27;20227;-55
2022/08/04 07:18:22;;;;;;;7.00;5.18;;;;;;;;;;5085373;27;20234;-54
2022/08/04 07:20:48;;;;;;;5.13;4.68;;;;;;;;;;5072734;27;20245;-53
2022/08/04 07:23:18;;;;;;;5.40;4.97;;;;;;;;;;5089384;27;20234;-54
2022/08/04 07:25:50;;;;;;;5.38;4.85;;;;;;;;;;5091207;27;20283;-54
2022/08/04 07:28:16;;;;;;;5.35;4.85;;;;;;;;;;5065914;28;20243;-54
2022/08/04 07:30:43;;;;;;;5.07;4.70;;;;;;;;;;5083191;27;20226;-55
2022/08/04 07:33:11;;;;;;;5.75;5.18;;;;;;;;;;5082461;27;20233;-53
2022/08/04 07:35:38;;;;;;;7.90;6.03;;;;;;;;;;5075908;27;20237;-54
2022/08/04 07:38:04;;;;;;;12.85;5.88;;;;;;;;;;5076043;27;20223;-54
2022/08/04 07:40:31;;;;;;;5.88;5.28;;;;;;;;;;5082827;27;20777;-54
2022/08/04 07:42:58;;;;;;;6.25;4.15;;;;;;;;;;5074210;27;20238;-53
2022/08/04 07:45:24;;;;;;;4.75;4.35;;;;;;;;;;5078870;27;20230;-53
2022/08/04 07:47:50;;;;;;;5.63;4.63;;;;;;;;;;5081511;27;21813;-53
2022/08/04 07:50:19;;;;;;;5.15;4.75;;;;;;;;;;5077845;27;20245;-54
2022/08/04 07:52:45;;;;;;;5.35;4.85;;;;;;;;;;5075865;27;20230;-56
2022/08/04 07:55:12;;;;;;;11.38;5.15;;;;;;;;;;5081834;27;20269;-53
2022/08/04 07:57:39;;;;;;;4.60;4.20;;;;;;;;;;5070442;27;20704;-55
2022/08/04 08:00:06;;;;;;;5.35;4.80;;;;;;;;;;5085173;27;20231;-54
2022/08/04 08:02:33;;;;;;;5.53;4.18;;;;;;;;;;5077610;27;20233;-54
2022/08/04 08:05:00;;;;;;;4.40;4.00;;;;;;;;;;5089651;27;20234;-55
2022/08/04 08:07:27;;;;;;;5.50;5.00;;;;;;;;;;5110741;27;20540;-54
2022/08/04 08:09:54;;;;;;;5.97;4.28;;;;;;;;;;5088691;27;20561;-54
2022/08/04 08:12:20;;;;;;;8.27;4.75;;;;;;;;;;5088107;27;20619;-54
2022/08/04 08:14:47;;;;;;;5.13;4.60;;;;;;;;;;5088906;28;20246;-53
2022/08/04 08:17:13;;;;;;;7.97;4.70;;;;;;;;;;5086241;27;20243;-53
2022/08/04 08:19:40;;;;;;;5.75;4.82;;;;;;;;;;5075735;27;20336;-54
2022/08/04 08:22:06;;;;;;;8.23;5.00;;;;;;;;;;5079198;27;20310;-54
2022/08/04 08:24:35;;;;;;;6.80;3.95;;;;;;;;;;5088688;27;20237;-55
2022/08/04 08:27:03;;;;;;;4.88;3.47;;;;;;;;;;5084186;27;20309;-53
2022/08/04 08:29:29;;;;;;;4.18;3.33;;;;;;;;;;5086376;27;20761;-53
2022/08/04 08:31:56;;;;;;;5.95;3.95;;;;;;;;;;5083776;27;20254;-54
2022/08/04 08:34:22;;;;;;;4.07;3.67;;;;;;;;;;5083155;27;20238;-54
2022/08/04 08:36:53;;;;;;;4.13;3.75;;;;;;;;;;5065739;27;20230;-53
2022/08/04 08:39:21;;;;;;;4.38;3.97;;;;;;;;;;5081195;28;20929;-54
2022/08/04 08:41:59;;;;;;;4.07;3.55;;;;;;;;;;5079681;27;20249;-55
2022/08/04 08:44:34;;;;;;;3.95;3.65;;;;;;;;;;5076964;27;20595;-54
2022/08/04 08:47:04;;;;;;;4.30;3.90;;;;;;;;;;5081694;27;20227;-54
2022/08/04 08:49:44;;;;;;;4.13;3.72;;;;;;;;;;5088563;27;20223;-53
2022/08/04 08:52:25;;;;;;;4.00;3.50;;;;;;;;;;5068909;27;20227;-54
2022/08/04 08:54:59;;;;;;;3.90;3.60;;;;;;;;;;5083038;27;20222;-53
2022/08/04 08:57:41;;;;;;;4.40;3.25;;;;;;;;;;5078320;27;20726;-55
2022/08/04 09:00:13;;;;;;;6.38;4.25;;;;;;;;;;5077012;27;20276;-54
2022/08/04 09:02:57;;;;;;;4.40;3.35;;;;;;;;;;5073419;27;20424;-54
2022/08/04 09:05:38;;;;;;;4.25;3.85;;;;;;;;;;5074409;28;20322;-54
2022/08/04 09:08:12;;;;;;;4.65;4.25;;;;;;;;;;5072809;27;20215;-53
2022/08/04 09:10:41;;;;;;;4.38;3.45;;;;;;;;;;5078120;27;20230;-54
2022/08/04 09:13:10;;;;;;;6.10;3.72;;;;;;;;;;5076621;27;20240;-54
2022/08/04 09:15:41;;;;;;;10.07;4.03;;;;;;;;;;5074781;27;20774;-52
2022/08/04 09:18:10;;;;;;;4.95;3.72;;;;;;;;;;5084735;27;20245;-53
2022/08/04 09:20:39;;;;;;;3.73;3.37;;;;;;;;;;5076322;27;20419;-53
2022/08/04 09:23:13;;;;;;;4.40;3.83;;;;;;;;;;5069459;27;21029;-53
2022/08/04 09:25:42;;;;;;;3.78;3.40;;;;;;;;;;5087647;27;20650;-53
2022/08/04 09:28:16;;;;;;;7.00;4.90;;;;;;;;;;5078718;27;20223;-54
2022/08/04 09:30:45;;;;;;;4.32;3.35;;;;;;;;;;5082378;27;20257;-53
2022/08/04 09:33:18;;;;;;;3.05;2.85;;;;;;;;;;5075097;27;20277;-52
2022/08/04 09:35:47;;;;;;;3.40;3.20;;;;;;;;;;5083056;27;20711;-53
2022/08/04 09:38:17;;;;;;;5.03;3.05;;;;;;;;;;5082093;27;20611;-54
2022/08/04 09:40:48;;;;;;;4.82;3.45;;;;;;;;;;5074715;27;20234;-54
2022/08/04 09:43:20;;;;;;;3.90;3.40;;;;;;;;;;5078839;27;20282;-54
2022/08/04 09:45:55;;;;;;;5.70;3.90;;;;;;;;;;5076497;27;20241;-53
2022/08/04 09:48:28;;;;;;;4.70;4.30;;;;;;;;;;5078660;27;20687;-54
2022/08/04 09:50:58;;;;;;;3.75;3.45;;;;;;;;;;5079416;27;20265;-53
2022/08/04 09:53:32;;;;;;;4.90;3.65;;;;;;;;;;5078991;28;20247;-55
2022/08/04 09:56:03;;;;;;;3.53;3.20;;;;;;;;;;5080496;27;20699;-53
2022/08/04 09:58:38;;;;;;;4.05;3.65;;;;;;;;;;5079134;27;20309;-53
2022/08/04 10:01:08;;;;;;;5.35;3.17;;;;;;;;;;5081821;27;20586;-53
2022/08/04 10:03:37;;;;;;;3.88;3.58;;;;;;;;;;5074698;28;20642;-55
2022/08/04 10:06:08;;;;;;;4.70;3.55;;;;;;;;;;5073407;27;20234;-54
2022/08/04 10:08:42;;;;;;;4.22;3.60;;;;;;;;;;5076898;27;20418;-56
2022/08/04 10:11:12;;;;;;;5.35;3.30;;;;;;;;;;5075754;27;20264;-55
2022/08/04 10:13:42;;;;;;;4.25;3.38;;;;;;;;;;5078201;27;20250;-54
2022/08/04 10:16:20;;;;;;;4.90;3.70;;;;;;;;;;5074259;27;20222;-54
2022/08/04 10:18:50;;;;;;;3.63;3.33;;;;;;;;;;5085231;27;20303;-53
2022/08/04 10:21:19;;;;;;;8.60;3.45;;;;;;;;;;5077419;27;20234;-54
2022/08/04 10:23:53;;;;;;;4.78;3.40;;;;;;;;;;5078301;27;20246;-53
2022/08/04 10:26:30;;;;;;;3.00;2.75;;;;;;;;;;5074274;27;20741;-54
2022/08/04 10:29:01;;;;;;;3.10;2.90;;;;;;;;;;5072011;27;20493;-52
2022/08/04 10:31:32;;;;;;;2.70;2.50;;;;;;;;;;5080426;27;20230;-52
2022/08/04 10:34:01;;;;;;;2.95;2.63;;;;;;;;;;5076854;27;20755;-53
2022/08/04 10:36:30;;;;;;;2.80;2.60;;;;;;;;;;5078864;27;20909;-53
2022/08/04 10:38:59;;;;;;;2.70;2.47;;;;;;;;;;5077741;27;20234;-54
2022/08/04 10:41:30;;;;;;;3.83;2.72;;;;;;;;;;5081740;27;20264;-52
2022/08/04 10:44:03;;;;;;;2.75;2.55;;;;;;;;;;5073686;27;20241;-52
2022/08/04 10:46:32;;;;;;;3.33;2.75;;;;;;;;;;5075643;27;20918;-51
2022/08/04 10:49:01;;;;;;;2.70;2.50;;;;;;;;;;5074295;27;21080;-54
2022/08/04 10:51:35;;;;;;;3.10;2.67;;;;;;;;;;5073485;27;20232;-52
2022/08/04 10:54:03;;;;;;;3.45;3.03;;;;;;;;;;5073951;27;20684;-54
2022/08/04 10:56:32;;;;;;;3.38;3.08;;;;;;;;;;5077038;27;20599;-52
2022/08/04 10:59:01;;;;;;;3.67;3.00;;;;;;;;;;5075494;27;20237;-55
2022/08/04 11:01:32;;;;;;;3.90;3.53;;;;;;;;;;5072067;27;20667;-53
2022/08/04 11:04:01;;;;;;;9.05;2.55;;;;;;;;;;5078372;27;20226;-51
2022/08/04 11:06:28;;;;;;;3.33;3.03;;;;;;;;;;5081664;27;20795;-53
2022/08/04 11:08:55;;;;;;;2.88;2.67;;;;;;;;;;5075981;27;20880;-52
2022/08/04 11:11:24;;;;;;;3.50;3.05;;;;;;;;;;5081042;27;21108;-51
2022/08/04 11:13:58;;;;;;;4.78;2.90;;;;;;;;;;5078562;27;20329;-53
2022/08/04 11:16:26;;;;;;;3.55;2.83;;;;;;;;;;5067628;27;20621;-53
2022/08/04 11:19:03;;;;;;;2.90;2.70;;;;;;;;;;5068871;27;20312;-53
2022/08/04 11:21:32;;;;;;;2.33;2.22;;;;;;;;;;5080037;28;20233;-52
2022/08/04 11:24:01;;;;;;;4.75;2.67;;;;;;;;;;5078419;27;20828;-53
2022/08/04 11:26:32;;;;;;;2.90;2.70;;;;;;;;;;5070421;27;20237;-52
2022/08/04 11:29:05;;;;;;;2.50;2.30;;;;;;;;;;5066524;27;20234;-52
2022/08/04 11:31:33;;;;;;;3.22;2.92;;;;;;;;;;5070385;27;20225;-53
2022/08/04 11:34:04;;;;;;;3.60;3.20;;;;;;;;;;5078437;27;20835;-53
2022/08/04 11:36:34;;;;;;;3.22;3.03;;;;;;;;;;5068861;27;20226;-53
2022/08/04 11:39:06;;;;;;;3.42;3.22;;;;;;;;;;5077709;27;20240;-53
2022/08/04 11:41:38;;;;;;;3.40;3.00;;;;;;;;;;5081274;27;20257;-53
2022/08/04 11:44:06;;;;;;;3.85;3.55;;;;;;;;;;5078304;27;20237;-53
2022/08/04 11:46:36;;;;;;;4.25;3.85;;;;;;;;;;5081380;27;20218;-53
2022/08/04 11:49:06;;;;;;;3.17;2.90;;;;;;;;;;5077096;27;20292;-53
2022/08/04 11:51:34;;;;;;;4.85;3.08;;;;;;;;;;5074751;28;20433;-53
2022/08/04 11:54:01;;;;;;;4.88;3.38;;;;;;;;;;5072292;27;20755;-53
2022/08/04 11:56:27;;;;;;;2.92;2.72;;;;;;;;;;5081851;27;20842;-52
2022/08/04 11:58:55;;;;;;;2.75;2.60;;;;;;;;;;5084629;27;20324;-53
2022/08/04 12:01:25;;;;;;;3.55;2.90;;;;;;;;;;5082440;27;20244;-52
2022/08/04 12:03:59;;;;;;;3.03;2.70;;;;;;;;;;5080494;27;20230;-52
2022/08/04 12:06:30;;;;;;;10.20;4.40;;;;;;;;;;5085769;27;20239;-52
2022/08/04 12:09:03;;;;;;;2.92;2.63;;;;;;;;;;5078963;27;20245;-53
2022/08/04 12:11:48;;;;;;;2.70;2.30;;;;;;;;;;5079411;27;20796;-53
2022/08/04 12:14:21;;;;;;;3.90;2.90;;;;;;;;;;5075018;27;20429;-52
2022/08/04 12:16:52;;;;;;;4.55;2.53;;;;;;;;;;5076614;27;20241;-53
2022/08/04 12:19:21;;;;;;;2.42;2.28;;;;;;;;;;5082745;27;20225;-53
2022/08/04 12:21:52;;;;;;;2.42;2.25;;;;;;;;;;5074235;27;20229;-52
2022/08/04 12:24:19;;;;;;;5.75;2.72;;;;;;;;;;5080987;28;20317;-53
2022/08/04 12:26:49;;;;;;;3.42;2.20;;;;;;;;;;5081528;27;20225;-53
2022/08/04 12:29:17;;;;;;;3.78;2.30;;;;;;;;;;5084384;27;20613;-52
2022/08/04 12:31:46;;;;;;;2.50;2.30;;;;;;;;;;5075829;27;20799;-53
2022/08/04 12:34:14;;;;;;;2.72;2.13;;;;;;;;;;5082723;27;20314;-53
2022/08/04 12:36:44;;;;;;;2.45;2.28;;;;;;;;;;5077579;27;20233;-53
2022/08/04 12:39:15;;;;;;;3.15;2.58;;;;;;;;;;5080589;27;20970;-52
2022/08/04 12:41:45;;;;;;;2.42;2.22;;;;;;;;;;5082722;27;20234;-53
2022/08/04 12:44:13;;;;;;;2.40;2.20;;;;;;;;;;5078870;27;20240;-53
2022/08/04 12:46:44;;;;;;;3.13;2.50;;;;;;;;;;5075977;27;20233;-52
2022/08/04 12:49:11;;;;;;;4.90;2.75;;;;;;;;;;5079967;27;20667;-52
2022/08/04 12:51:40;;;;;;;3.55;3.10;;;;;;;;;;5083500;27;20260;-54
2022/08/04 12:54:07;;;;;;;2.42;2.22;;;;;;;;;;5081768;27;20661;-54
2022/08/04 12:56:36;;;;;;;2.70;2.50;;;;;;;;;;5076302;27;20221;-58
2022/08/04 12:59:04;;;;;;;2.55;2.40;;;;;;;;;;5079261;27;20230;-53
2022/08/04 13:01:31;;;;;;;3.38;2.63;;;;;;;;;;5080609;27;20238;-53
2022/08/04 13:04:00;;;;;;;1.95;1.85;;;;;;;;;;5082157;27;20245;-53
2022/08/04 13:06:29;;;;;;;2.42;2.22;;;;;;;;;;5090988;27;20571;-52
2022/08/04 13:08:55;;;;;;;2.45;2.25;;;;;;;;;;5075764;27;20711;-53
2022/08/04 13:11:22;;;;;;;2.47;2.20;;;;;;;;;;5080318;27;20261;-51
2022/08/04 13:13:53;;;;;;;2.97;1.80;;;;;;;;;;5072711;27;20238;-52
2022/08/04 13:16:28;;;;;;;2.38;2.25;;;;;;;;;;5074130;27;20307;-52
2022/08/04 13:18:55;;;;;;;2.75;2.10;;;;;;;;;;5078861;27;20320;-52
2022/08/04 13:21:23;;;;;;;5.95;2.53;;;;;;;;;;5083628;27;20763;-54
2022/08/04 13:23:51;;;;;;;2.42;2.03;;;;;;;;;;5080766;27;20234;-53
2022/08/04 13:26:18;;;;;;;2.20;2.00;;;;;;;;;;5080604;27;20222;-53
2022/08/04 13:28:45;;;;;;;2.30;2.13;;;;;;;;;;5078411;27;20230;-53
2022/08/04 13:31:14;;;;;;;4.53;2.40;;;;;;;;;;5083040;27;20326;-53
2022/08/04 13:33:42;;;;;;;3.63;2.10;;;;;;;;;;5073795;27;20599;-52
2022/08/04 13:36:08;;;;;;;1.90;1.80;;;;;;;;;;5072303;27;20226;-53
2022/08/04 13:38:36;;;;;;;2.65;2.03;;;;;;;;;;5077694;27;20222;-54
2022/08/04 13:41:03;;;;;;;2.85;1.75;;;;;;;;;;5075033;27;20237;-53
2022/08/04 13:43:32;;;;;;;2.97;2.15;;;;;;;;;;5072023;27;20214;-53
2022/08/04 13:45:59;;;;;;;7.00;2.10;;;;;;;;;;5078320;27;20234;-52
2022/08/04 13:48:30;;;;;;;2.55;2.35;;;;;;;;;;5076567;27;20231;-52
2022/08/04 13:51:03;;;;;;;1.95;1.85;;;;;;;;;;5076102;27;20242;-53
2022/08/04 13:53:30;;;;;;;2.15;1.90;;;;;;;;;;5068097;28;20314;-54
2022/08/04 13:55:57;;;;;;;2.10;2.00;;;;;;;;;;5075799;27;20230;-53
2022/08/04 13:58:24;;;;;;;2.20;2.00;;;;;;;;;;5081331;27;20789;-52
2022/08/04 14:00:53;;;;;;;2.20;2.03;;;;;;;;;;5084633;27;20248;-53
2022/08/04 14:03:25;;;;;;;2.08;1.92;;;;;;;;;;5072097;27;20226;-52
2022/08/04 14:06:13;;;;;;;1.88;1.77;;;;;;;;;;5076196;27;20258;-53
2022/08/04 14:08:50;;;;;;;1.95;1.85;;;;;;;;;;5075866;27;20217;-52
2022/08/04 14:11:17;;;;;;;2.97;2.70;;;;;;;;;;5073833;27;20248;-53
2022/08/04 14:13:44;;;;;;;3.47;1.92;;;;;;;;;;5080909;27;20233;-53
2022/08/04 14:16:14;;;;;;;2.53;2.33;;;;;;;;;;5077257;27;20230;-52
2022/08/04 14:18:40;;;;;;;6.32;5.70;;;;;;;;;;5066831;28;20284;-52
2022/08/04 14:21:08;;;;;;;2.92;2.72;;;;;;;;;;5078683;27;20245;-52
2022/08/04 14:23:40;;;;;;;2.17;2.08;;;;;;;;;;5084629;27;20308;-54
2022/08/04 14:26:14;;;;;;;2.50;2.28;;;;;;;;;;5067891;27;20311;-52
2022/08/04 14:28:40;;;;;;;3.85;1.90;;;;;;;;;;5072459;27;20245;-54
2022/08/04 14:31:11;;;;;;;1.92;1.83;;;;;;;;;;5084386;27;20249;-53
2022/08/04 14:33:38;;;;;;;3.42;2.20;;;;;;;;;;5073540;27;20244;-52
2022/08/04 14:36:04;;;;;;;1.75;1.65;;;;;;;;;;5076702;27;20240;-53
2022/08/04 14:38:46;;;;;;;8.98;2.30;;;;;;;;;;5066702;27;20692;-53
2022/08/04 14:41:13;;;;;;;1.90;1.80;;;;;;;;;;5074486;27;20695;-52
2022/08/04 14:43:46;;;;;;;2.53;1.70;;;;;;;;;;5076947;27;20320;-52
2022/08/04 14:46:13;;;;;;;2.75;1.80;;;;;;;;;;5077728;27;20230;-51
2022/08/04 14:48:40;;;;;;;2.97;1.73;;;;;;;;;;5079749;27;20232;-51
2022/08/04 14:51:12;;;;;;;1.70;1.60;;;;;;;;;;5077069;27;20329;-53
2022/08/04 14:53:38;;;;;;;1.50;1.40;;;;;;;;;;5071118;27;20225;-53
2022/08/04 14:56:06;;;;;;;3.03;2.08;;;;;;;;;;5077701;27;20245;-53
2022/08/04 14:58:34;;;;;;;2.15;1.98;;;;;;;;;;5079610;27;20234;-52
2022/08/04 15:01:01;;;;;;;3.05;1.80;;;;;;;;;;5077122;27;20233;-54
2022/08/04 15:03:29;;;;;;;2.17;2.00;;;;;;;;;;5083945;27;20233;-53